Accueil
METAR-TAF:

METAR-TAF

Aéroports :

Aérodrome de Tétouan - Sania R'mel

Tétouan, Maroc

latitude: 35-35N, longitude: 005-20W, altitude: 10 m

Observation

Le bulletin a été fait il y a 51 minutes, à 15:00 UTC
Vent 15 kt de ouest, variant entre sud-ouest et ouest/nord-ouest
Température 23°C
Humidité 44%
Pression 1022 hPa
Visibilité 10 km ou plus
Quelques nuages à une hauteur de 1600 ft
Nuages épars à une hauteur de 20000 ft

METAR: GMTN 251500Z 26015KT 230V300 9999 FEW016 SCT200 23/10 Q1022 NOSIG

Heure: 16:51 (15:51 UTC)


TAF: absent

Observations et prévisions météorologiques de plus de 4000 aéroports (messages METAR et TAF).

Les stations disponibles sont représentées par des disques jaunes et rouges sur la carte.

Passer la souris dessus pour voir le nom de la station.

Cliquer dessus pour voir les observations et prévisions météorologiques.

Pour changer de carte: cliquez sur les boutons verts avec une croix noire pour zoomer, sur le bouton vert avec un tiret pour effectuer un zoom arrière, ou sur les flèches vertes pour les cartes adjacentes.


METAR-TAF: